createdAt,value
2018-11-07T00:00:35.399Z,13.51
2018-11-07T00:03:03.351Z,13.64
2018-11-07T00:05:31.268Z,13.68
2018-11-07T00:07:59.232Z,13.64
2018-11-07T00:10:27.106Z,13.67
2018-11-07T00:12:55.039Z,13.69
2018-11-07T00:15:22.976Z,13.66
2018-11-07T00:17:51.008Z,13.61
2018-11-07T00:20:18.987Z,13.74
2018-11-07T00:22:46.868Z,13.79
2018-11-07T00:25:14.843Z,13.91
2018-11-07T00:27:42.747Z,13.91
2018-11-07T00:30:11.242Z,13.94
2018-11-07T00:32:39.451Z,13.94
2018-11-07T00:35:08.484Z,13.93
2018-11-07T00:37:36.299Z,13.95
2018-11-07T00:40:04.270Z,13.91
2018-11-07T00:42:32.190Z,13.89
2018-11-07T00:45:00.172Z,13.91
2018-11-07T00:47:28.401Z,13.84
2018-11-07T00:49:56.359Z,13.89
2018-11-07T00:52:24.288Z,13.90
2018-11-07T00:54:52.316Z,13.95
2018-11-07T00:57:20.256Z,13.94
2018-11-07T00:59:48.191Z,13.93
2018-11-07T01:02:16.212Z,13.92
2018-11-07T01:04:44.112Z,13.90
2018-11-07T01:07:12.071Z,13.85
2018-11-07T01:09:40.237Z,13.79
2018-11-07T01:12:08.094Z,13.71
2018-11-07T01:14:36.027Z,13.68
2018-11-07T01:17:03.940Z,13.58
2018-11-07T01:19:31.870Z,13.56
2018-11-07T01:21:59.819Z,13.59
2018-11-07T01:24:27.747Z,13.53
2018-11-07T01:26:55.660Z,13.42
2018-11-07T01:29:23.611Z,13.37
2018-11-07T01:31:51.539Z,13.32
2018-11-07T01:34:19.479Z,13.22
2018-11-07T01:36:47.487Z,13.21
2018-11-07T01:39:15.424Z,13.15
2018-11-07T01:41:43.359Z,13.15
2018-11-07T01:44:11.235Z,13.03
2018-11-07T01:46:39.207Z,13.05
2018-11-07T01:49:07.163Z,13.07
2018-11-07T01:51:35.068Z,13.11
2018-11-07T01:54:03.012Z,13.16
2018-11-07T01:56:30.964Z,13.22
2018-11-07T01:58:58.997Z,13.29
2018-11-07T02:01:26.855Z,13.30
2018-11-07T02:03:54.767Z,13.30
2018-11-07T02:06:22.696Z,13.35
2018-11-07T02:08:50.607Z,13.32
2018-11-07T02:11:18.570Z,13.34
2018-11-07T02:13:46.515Z,13.33
2018-11-07T02:16:14.460Z,13.29
2018-11-07T02:18:42.898Z,13.23
2018-11-07T02:21:10.840Z,13.14
2018-11-07T02:23:38.831Z,13.08
2018-11-07T02:26:06.784Z,13.06
2018-11-07T02:28:34.687Z,13.13
2018-11-07T02:31:02.595Z,13.05
2018-11-07T02:33:30.532Z,13.01
2018-11-07T02:35:58.453Z,12.93
2018-11-07T02:38:26.353Z,12.96
2018-11-07T02:40:54.284Z,12.97
2018-11-07T02:43:22.187Z,12.99
2018-11-07T02:45:50.128Z,12.92
2018-11-07T02:48:18.078Z,12.89
2018-11-07T02:50:45.979Z,12.87
2018-11-07T02:53:14.017Z,12.87
2018-11-07T02:55:41.852Z,12.83
2018-11-07T02:58:09.795Z,12.85
2018-11-07T03:00:37.708Z,12.81
2018-11-07T03:03:05.647Z,12.92
2018-11-07T03:05:33.557Z,12.81
2018-11-07T03:08:01.454Z,12.83
2018-11-07T03:10:29.441Z,12.89
2018-11-07T03:12:57.284Z,12.81
2018-11-07T03:15:25.227Z,12.65
2018-11-07T03:17:53.143Z,12.52
2018-11-07T03:20:21.080Z,12.49
2018-11-07T03:22:49.000Z,12.49
2018-11-07T03:25:16.959Z,12.47
2018-11-07T03:27:44.870Z,12.48
2018-11-07T03:30:12.828Z,12.32
2018-11-07T03:32:40.736Z,12.41
2018-11-07T03:35:14.831Z,12.38
2018-11-07T03:37:42.757Z,12.41
2018-11-07T03:40:10.691Z,12.37
2018-11-07T03:42:38.611Z,12.27
2018-11-07T03:45:06.571Z,12.24
2018-11-07T03:47:34.536Z,12.17
2018-11-07T03:50:02.503Z,11.92
2018-11-07T03:52:30.439Z,12.00
2018-11-07T03:54:58.367Z,11.99
2018-11-07T03:57:26.419Z,11.95
2018-11-07T03:59:54.399Z,11.97
2018-11-07T04:02:22.321Z,12.00
2018-11-07T04:04:50.275Z,11.92
2018-11-07T04:07:18.204Z,11.93
2018-11-07T04:09:46.152Z,12.01
2018-11-07T04:12:14.071Z,12.04
2018-11-07T04:14:42.012Z,12.10
2018-11-07T04:17:09.992Z,12.12
2018-11-07T04:19:37.917Z,12.20
2018-11-07T04:22:05.859Z,12.24
2018-11-07T04:24:33.844Z,12.30
2018-11-07T04:27:01.787Z,12.33
2018-11-07T04:29:29.712Z,12.29
2018-11-07T04:31:57.645Z,12.26
2018-11-07T04:34:25.607Z,12.20
2018-11-07T04:36:53.552Z,12.14
2018-11-07T04:39:21.467Z,12.05
2018-11-07T04:41:49.403Z,11.94
2018-11-07T04:44:17.426Z,11.86
2018-11-07T04:46:45.344Z,11.71
2018-11-07T04:49:13.295Z,11.67
2018-11-07T04:51:41.207Z,11.64
2018-11-07T04:54:09.172Z,11.58
2018-11-07T04:56:37.154Z,11.55
2018-11-07T04:59:05.103Z,11.55
2018-11-07T05:01:33.004Z,11.52
2018-11-07T05:04:00.934Z,11.53
2018-11-07T05:06:28.880Z,11.58
2018-11-07T05:08:56.809Z,11.55
2018-11-07T05:11:24.729Z,11.65
2018-11-07T05:13:52.638Z,11.66
2018-11-07T05:16:20.623Z,11.68
2018-11-07T05:18:48.560Z,11.59
2018-11-07T05:21:16.524Z,11.72
2018-11-07T05:23:44.507Z,11.67
2018-11-07T05:26:12.449Z,11.63
2018-11-07T05:28:40.373Z,11.62
2018-11-07T05:31:08.284Z,11.56
2018-11-07T05:33:36.191Z,11.56
2018-11-07T05:36:04.134Z,11.52
2018-11-07T05:38:32.089Z,11.55
2018-11-07T05:41:00.046Z,11.50
2018-11-07T05:43:27.939Z,11.46
2018-11-07T05:45:55.891Z,11.43
2018-11-07T05:48:23.807Z,11.38
2018-11-07T05:50:51.753Z,11.35
2018-11-07T05:53:19.684Z,11.36
2018-11-07T05:55:47.616Z,11.35
2018-11-07T05:58:15.615Z,11.37
2018-11-07T06:00:43.543Z,11.40
2018-11-07T06:03:11.463Z,11.43
2018-11-07T06:05:39.404Z,11.55
2018-11-07T06:08:07.339Z,11.59
2018-11-07T06:10:35.256Z,11.61
2018-11-07T06:13:03.212Z,11.65
2018-11-07T06:15:31.116Z,11.66
2018-11-07T06:17:59.040Z,11.72
2018-11-07T06:20:26.982Z,11.62
2018-11-07T06:22:54.983Z,11.53
2018-11-07T06:25:22.843Z,11.49
2018-11-07T06:27:50.783Z,11.47
2018-11-07T06:30:18.723Z,11.47
2018-11-07T06:32:46.663Z,11.37
2018-11-07T06:35:14.595Z,11.33
2018-11-07T06:37:42.511Z,11.28
2018-11-07T06:40:11.531Z,11.40
2018-11-07T06:42:39.522Z,11.52
2018-11-07T06:45:07.980Z,11.55
2018-11-07T06:47:35.923Z,11.51
2018-11-07T06:50:04.170Z,11.36
2018-11-07T06:52:32.127Z,11.48
2018-11-07T06:55:00.042Z,11.49
2018-11-07T06:57:28.040Z,11.58
2018-11-07T06:59:55.978Z,11.59
2018-11-07T07:02:23.907Z,11.61
2018-11-07T07:04:51.825Z,11.75
2018-11-07T07:07:19.760Z,11.84
2018-11-07T07:09:47.680Z,11.97
2018-11-07T07:12:15.602Z,12.07
2018-11-07T07:14:43.573Z,12.15
2018-11-07T07:17:11.503Z,12.23
2018-11-07T07:19:39.418Z,12.34
2018-11-07T07:22:07.401Z,12.40
2018-11-07T07:24:35.335Z,12.47
2018-11-07T07:27:03.256Z,12.60
2018-11-07T07:29:31.191Z,12.72
2018-11-07T07:31:59.108Z,12.84
2018-11-07T07:34:27.047Z,12.85
2018-11-07T07:36:54.960Z,12.89
2018-11-07T07:39:22.871Z,13.00
2018-11-07T07:41:50.795Z,13.06
2018-11-07T07:44:18.705Z,13.17
2018-11-07T07:46:46.616Z,13.23
2018-11-07T07:49:14.849Z,13.58
2018-11-07T07:51:42.749Z,15.32
2018-11-07T07:54:10.651Z,16.81
2018-11-07T07:56:38.579Z,17.64
2018-11-07T07:59:06.552Z,18.54
2018-11-07T08:01:34.550Z,19.16
2018-11-07T08:04:02.438Z,19.40
2018-11-07T08:06:33.489Z,19.78
2018-11-07T08:09:01.419Z,20.20
2018-11-07T08:11:29.600Z,20.78
2018-11-07T08:13:57.782Z,20.83
2018-11-07T08:16:25.663Z,21.17
2018-11-07T08:18:53.563Z,21.52
2018-11-07T08:21:21.564Z,21.52
2018-11-07T08:23:49.469Z,21.46
2018-11-07T08:26:17.415Z,21.30
2018-11-07T08:28:45.447Z,21.35
2018-11-07T08:31:13.384Z,21.27
2018-11-07T08:33:41.316Z,21.16
2018-11-07T08:36:09.396Z,21.53
2018-11-07T08:38:37.456Z,21.74
2018-11-07T08:41:05.399Z,21.86
2018-11-07T08:43:33.335Z,21.90
2018-11-07T08:46:01.284Z,22.40
2018-11-07T08:48:29.220Z,22.23
2018-11-07T08:50:57.168Z,22.64
2018-11-07T08:53:25.140Z,22.93
2018-11-07T08:55:53.100Z,22.87
2018-11-07T08:58:21.035Z,22.83
2018-11-07T09:00:49.005Z,22.75
2018-11-07T09:03:16.932Z,22.89
2018-11-07T09:05:44.884Z,22.78
2018-11-07T09:08:12.812Z,22.95
2018-11-07T09:10:40.744Z,21.72
2018-11-07T09:13:08.847Z,20.21
2018-11-07T09:15:36.791Z,19.35
2018-11-07T09:18:04.920Z,19.03
2018-11-07T09:20:32.864Z,18.53
2018-11-07T09:23:00.944Z,18.08
2018-11-07T09:25:28.904Z,17.99
2018-11-07T09:27:56.824Z,17.95
2018-11-07T09:30:24.740Z,18.02
2018-11-07T09:32:52.708Z,18.31
2018-11-07T09:35:21.167Z,18.23
2018-11-07T09:37:49.112Z,18.14
2018-11-07T09:40:18.460Z,17.82
2018-11-07T09:42:47.132Z,17.82
2018-11-07T09:45:16.275Z,17.82
2018-11-07T09:47:44.723Z,17.95
2018-11-07T09:50:14.591Z,18.01
2018-11-07T09:52:42.760Z,17.77
2018-11-07T09:55:12.508Z,17.71
2018-11-07T09:57:40.672Z,17.63
2018-11-07T10:00:10.371Z,17.64
2018-11-07T10:02:38.615Z,17.99
2018-11-07T10:05:07.480Z,18.12
2018-11-07T10:07:35.397Z,18.07
2018-11-07T10:10:03.353Z,18.17
2018-11-07T10:12:31.298Z,18.26
2018-11-07T10:14:59.168Z,19.17
2018-11-07T10:17:27.100Z,20.19
2018-11-07T10:19:55.116Z,20.87
2018-11-07T10:22:23.088Z,20.53
2018-11-07T10:24:51.026Z,20.16
2018-11-07T10:27:19.180Z,20.92
2018-11-07T10:29:47.175Z,21.09
2018-11-07T10:32:14.866Z,21.45
2018-11-07T10:34:42.830Z,22.38
2018-11-07T10:37:10.791Z,22.70
2018-11-07T10:39:38.736Z,22.10
2018-11-07T10:42:06.727Z,22.47
2018-11-07T10:44:34.633Z,22.41
2018-11-07T10:47:02.593Z,22.96
2018-11-07T10:49:30.523Z,23.44
2018-11-07T10:51:58.484Z,23.81
2018-11-07T10:54:26.319Z,24.01
2018-11-07T10:56:54.248Z,23.84
2018-11-07T10:59:22.195Z,23.19
2018-11-07T11:01:55.497Z,22.34
2018-11-07T11:04:23.432Z,21.93
2018-11-07T11:06:51.356Z,21.56
2018-11-07T11:09:19.285Z,21.53
2018-11-07T11:11:47.216Z,21.02
2018-11-07T11:14:15.149Z,20.86
2018-11-07T11:16:43.088Z,20.66
2018-11-07T11:19:10.977Z,20.66
2018-11-07T11:21:38.908Z,20.70
2018-11-07T11:24:06.844Z,20.30
2018-11-07T11:26:34.815Z,20.14
2018-11-07T11:29:02.833Z,20.18
2018-11-07T11:31:30.768Z,20.31
2018-11-07T11:33:58.786Z,20.39
2018-11-07T11:36:26.662Z,20.39
2018-11-07T11:38:54.707Z,20.34
2018-11-07T11:41:22.636Z,19.99
2018-11-07T11:43:50.573Z,19.85
2018-11-07T11:46:18.487Z,19.83
2018-11-07T11:48:46.424Z,19.90
2018-11-07T11:51:14.385Z,20.34
2018-11-07T11:53:42.280Z,20.65
2018-11-07T11:56:10.284Z,20.76
2018-11-07T11:58:38.219Z,20.73
2018-11-07T12:01:06.646Z,20.91
2018-11-07T12:03:34.608Z,20.50
2018-11-07T12:06:02.555Z,20.10
2018-11-07T12:08:30.665Z,20.12
2018-11-07T12:10:58.495Z,19.92
2018-11-07T12:13:27.065Z,19.88
2018-11-07T12:15:55.003Z,19.87
2018-11-07T12:18:23.111Z,19.82
2018-11-07T12:20:51.627Z,19.75
2018-11-07T12:23:19.857Z,19.76
2018-11-07T12:25:47.901Z,19.70
2018-11-07T12:28:16.411Z,19.48
2018-11-07T12:30:44.790Z,19.42
2018-11-07T12:33:12.918Z,19.45
2018-11-07T12:35:41.432Z,19.38
2018-11-07T12:38:09.942Z,19.15
2018-11-07T12:40:38.230Z,19.16
2018-11-07T12:43:06.795Z,19.11
2018-11-07T12:45:34.958Z,19.19
2018-11-07T12:48:03.277Z,19.30
2018-11-07T12:50:31.700Z,19.19
2018-11-07T12:52:59.773Z,19.23
2018-11-07T12:55:28.208Z,19.14
2018-11-07T12:57:56.648Z,19.19
2018-11-07T13:00:26.100Z,19.24
2018-11-07T13:02:54.070Z,19.28
2018-11-07T13:05:22.830Z,19.23
2018-11-07T13:07:51.445Z,19.28
2018-11-07T13:10:20.628Z,19.38
2018-11-07T13:12:49.163Z,19.31
2018-11-07T13:15:17.455Z,19.30
2018-11-07T13:17:45.913Z,19.23
2018-11-07T13:20:16.130Z,19.28
2018-11-07T13:22:46.500Z,19.28
2018-11-07T13:25:14.969Z,19.28
2018-11-07T13:27:42.907Z,19.31
2018-11-07T13:30:13.139Z,19.40
2018-11-07T13:32:41.426Z,19.33
2018-11-07T13:35:10.292Z,19.30
2018-11-07T13:37:39.360Z,19.33
2018-11-07T13:40:09.296Z,19.25
2018-11-07T13:42:37.211Z,19.27
2018-11-07T13:45:06.571Z,19.19
2018-11-07T13:47:34.540Z,19.16
2018-11-07T13:50:02.466Z,18.99
2018-11-07T13:52:30.398Z,18.98
2018-11-07T13:54:58.315Z,18.91
2018-11-07T13:57:26.347Z,18.86
2018-11-07T13:59:54.279Z,18.86
2018-11-07T14:02:22.215Z,18.79
2018-11-07T14:04:50.160Z,18.79
2018-11-07T14:07:18.140Z,18.76
2018-11-07T14:09:46.043Z,18.83
2018-11-07T14:12:13.982Z,18.79
2018-11-07T14:14:42.005Z,18.70
2018-11-07T14:17:09.928Z,18.73
2018-11-07T14:19:37.843Z,18.70
2018-11-07T14:22:05.771Z,18.69
2018-11-07T14:24:33.712Z,18.59
2018-11-07T14:27:01.625Z,18.69
2018-11-07T14:29:29.550Z,18.55
2018-11-07T14:31:57.991Z,18.48
2018-11-07T14:34:26.058Z,18.45
2018-11-07T14:36:53.963Z,18.45
2018-11-07T14:39:21.936Z,18.43
2018-11-07T14:41:49.859Z,18.45
2018-11-07T14:44:17.931Z,18.41
2018-11-07T14:46:45.846Z,18.40
2018-11-07T14:49:13.748Z,18.33
2018-11-07T14:51:41.679Z,18.27
2018-11-07T14:54:09.593Z,18.24
2018-11-07T14:56:37.515Z,18.28
2018-11-07T14:59:05.408Z,18.16
2018-11-07T15:01:33.368Z,18.03
2018-11-07T15:04:01.291Z,18.03
2018-11-07T15:06:29.220Z,18.01
2018-11-07T15:08:57.175Z,18.07
2018-11-07T15:11:25.075Z,18.00
2018-11-07T15:13:52.964Z,17.91
2018-11-07T15:16:20.875Z,17.98
2018-11-07T15:18:48.802Z,17.98
2018-11-07T15:21:16.707Z,17.91
2018-11-07T15:23:44.627Z,18.01
2018-11-07T15:26:12.555Z,17.99
2018-11-07T15:28:40.493Z,18.02
2018-11-07T15:31:08.400Z,17.98
2018-11-07T15:33:36.356Z,17.99
2018-11-07T15:36:04.295Z,17.99
2018-11-07T15:38:32.203Z,17.99
2018-11-07T15:41:00.188Z,17.97
2018-11-07T15:43:28.124Z,17.97
2018-11-07T15:45:56.028Z,17.94
2018-11-07T15:48:23.943Z,17.92
2018-11-07T15:50:57.084Z,17.93
2018-11-07T15:53:25.003Z,17.90
2018-11-07T15:55:52.939Z,17.86
2018-11-07T15:58:20.840Z,17.83
2018-11-07T16:00:48.723Z,17.85
2018-11-07T16:03:20.899Z,17.81
2018-11-07T16:05:48.817Z,17.76
2018-11-07T16:08:16.713Z,17.81
2018-11-07T16:10:44.623Z,17.80
2018-11-07T16:13:12.610Z,17.72
2018-11-07T16:15:40.614Z,17.77
2018-11-07T16:18:08.380Z,17.74
2018-11-07T16:20:36.346Z,17.75
2018-11-07T16:23:04.719Z,17.79
2018-11-07T16:25:32.619Z,17.72
2018-11-07T16:28:00.547Z,17.72
2018-11-07T16:30:28.468Z,17.70
2018-11-07T16:32:56.408Z,17.67
2018-11-07T16:35:24.316Z,17.62
2018-11-07T16:37:52.297Z,17.57
2018-11-07T16:40:20.312Z,17.53
2018-11-07T16:42:48.213Z,17.45
2018-11-07T16:45:16.939Z,17.39
2018-11-07T16:47:45.028Z,17.35
2018-11-07T16:50:14.008Z,17.41
2018-11-07T16:52:42.078Z,17.43
2018-11-07T16:55:09.955Z,17.42
2018-11-07T16:57:38.379Z,17.42
2018-11-07T17:00:08.425Z,17.42
2018-11-07T17:02:36.360Z,17.48
2018-11-07T17:05:04.431Z,17.43
2018-11-07T17:07:32.332Z,17.50
2018-11-07T17:10:00.283Z,17.58
2018-11-07T17:12:28.192Z,17.57
2018-11-07T17:14:56.299Z,17.51
2018-11-07T17:17:24.220Z,17.48
2018-11-07T17:19:52.135Z,17.50
2018-11-07T17:22:20.067Z,17.51
2018-11-07T17:24:48.057Z,17.39
2018-11-07T17:27:15.927Z,17.35
2018-11-07T17:29:43.896Z,17.36
2018-11-07T17:32:11.828Z,17.27
2018-11-07T17:34:39.739Z,17.30
2018-11-07T17:37:07.721Z,17.33
2018-11-07T17:39:35.663Z,17.28
2018-11-07T17:42:03.591Z,17.31
2018-11-07T17:44:31.536Z,17.21
2018-11-07T17:46:59.492Z,17.26
2018-11-07T17:49:27.404Z,17.27
2018-11-07T17:51:55.399Z,17.38
2018-11-07T17:54:23.375Z,17.36
2018-11-07T17:56:51.281Z,17.34
2018-11-07T17:59:19.221Z,17.43
2018-11-07T18:01:47.143Z,17.44
2018-11-07T18:04:15.058Z,17.42
2018-11-07T18:06:43.015Z,17.32
2018-11-07T18:09:11.140Z,17.28
2018-11-07T18:11:39.234Z,17.27
2018-11-07T18:14:07.895Z,17.27
2018-11-07T18:16:35.824Z,17.20
2018-11-07T18:19:03.760Z,17.18
2018-11-07T18:21:31.767Z,17.05
2018-11-07T18:23:59.703Z,17.04
2018-11-07T18:26:27.660Z,17.00
2018-11-07T18:28:55.571Z,17.06
2018-11-07T18:31:23.474Z,17.10
2018-11-07T18:33:51.421Z,17.07
2018-11-07T18:36:19.338Z,17.02
2018-11-07T18:38:47.248Z,16.98
2018-11-07T18:41:15.171Z,17.03
2018-11-07T18:43:43.184Z,17.03
2018-11-07T18:46:11.120Z,17.04
2018-11-07T18:48:39.067Z,17.01
2018-11-07T18:51:07.012Z,17.07
2018-11-07T18:53:34.936Z,17.03
2018-11-07T18:56:02.928Z,16.99
2018-11-07T18:58:30.978Z,16.90
2018-11-07T19:00:58.883Z,16.93
2018-11-07T19:03:26.792Z,16.97
2018-11-07T19:05:54.720Z,16.98
2018-11-07T19:08:22.651Z,17.03
2018-11-07T19:10:50.583Z,17.00
2018-11-07T19:13:18.511Z,17.11
2018-11-07T19:15:46.409Z,17.06
2018-11-07T19:18:14.312Z,17.06
2018-11-07T19:20:42.262Z,16.86
2018-11-07T19:23:10.186Z,16.95
2018-11-07T19:25:38.127Z,16.87
2018-11-07T19:28:06.053Z,16.98
2018-11-07T19:30:33.951Z,16.86
2018-11-07T19:33:01.895Z,16.85
2018-11-07T19:35:29.800Z,16.80
2018-11-07T19:37:57.722Z,16.81
2018-11-07T19:40:26.367Z,16.84
2018-11-07T19:42:54.239Z,16.85
2018-11-07T19:45:22.783Z,16.82
2018-11-07T19:47:50.991Z,16.80
2018-11-07T19:50:19.784Z,16.83
2018-11-07T19:52:48.792Z,16.64
2018-11-07T19:55:18.960Z,16.65
2018-11-07T19:57:48.928Z,16.65
2018-11-07T20:00:17.392Z,16.70
2018-11-07T20:02:46.006Z,16.67
2018-11-07T20:05:14.136Z,16.67
2018-11-07T20:07:42.092Z,16.62
2018-11-07T20:10:12.581Z,16.59
2018-11-07T20:12:40.567Z,16.68
2018-11-07T20:15:10.009Z,16.58
2018-11-07T20:17:38.000Z,16.51
2018-11-07T20:20:06.636Z,16.54
2018-11-07T20:22:34.701Z,16.57
2018-11-07T20:25:02.607Z,16.52
2018-11-07T20:27:30.886Z,16.45
2018-11-07T20:29:59.180Z,16.39
2018-11-07T20:32:27.106Z,16.40
2018-11-07T20:34:55.052Z,16.48
2018-11-07T20:37:22.989Z,16.53
2018-11-07T20:39:51.052Z,16.53
2018-11-07T20:42:18.996Z,16.60
2018-11-07T20:44:46.939Z,16.47
2018-11-07T20:47:14.878Z,16.43
2018-11-07T20:49:42.875Z,16.53
2018-11-07T20:52:10.816Z,16.49
2018-11-07T20:54:38.802Z,16.50
2018-11-07T20:57:06.740Z,16.54
2018-11-07T20:59:34.712Z,16.55
2018-11-07T21:02:02.776Z,16.60
2018-11-07T21:04:30.920Z,16.64
2018-11-07T21:06:58.823Z,16.64
2018-11-07T21:09:26.764Z,16.55
2018-11-07T21:11:54.711Z,16.59
2018-11-07T21:14:22.631Z,16.54
2018-11-07T21:16:50.612Z,16.57
2018-11-07T21:19:18.500Z,16.59
2018-11-07T21:21:46.420Z,16.57
2018-11-07T21:24:14.343Z,16.54
2018-11-07T21:26:42.248Z,16.50
2018-11-07T21:29:10.191Z,16.56
2018-11-07T21:31:38.102Z,16.47
2018-11-07T21:34:06.040Z,16.39
2018-11-07T21:36:33.959Z,16.41
2018-11-07T21:39:02.305Z,16.41
2018-11-07T21:41:30.256Z,16.40
2018-11-07T21:43:58.246Z,16.42
2018-11-07T21:46:26.163Z,16.35
2018-11-07T21:48:54.089Z,16.33
2018-11-07T21:51:22.031Z,16.26
2018-11-07T21:53:49.935Z,16.29
2018-11-07T21:56:17.875Z,16.13
2018-11-07T21:58:45.824Z,16.09
2018-11-07T22:01:13.807Z,16.05
2018-11-07T22:03:41.743Z,16.05
2018-11-07T22:06:09.665Z,16.08
2018-11-07T22:08:37.596Z,16.08
2018-11-07T22:11:05.631Z,16.06
2018-11-07T22:13:33.548Z,16.00
2018-11-07T22:16:01.496Z,16.00
2018-11-07T22:18:29.444Z,15.95
2018-11-07T22:20:57.356Z,15.91
2018-11-07T22:23:25.847Z,15.98
2018-11-07T22:25:54.567Z,15.91
2018-11-07T22:28:23.332Z,15.86
2018-11-07T22:30:51.303Z,15.82
2018-11-07T22:33:19.224Z,15.83
2018-11-07T22:35:47.144Z,15.77
2018-11-07T22:38:15.083Z,15.73
2018-11-07T22:40:42.999Z,15.77
2018-11-07T22:43:10.934Z,15.78
2018-11-07T22:45:38.876Z,15.81
2018-11-07T22:48:06.774Z,15.73
2018-11-07T22:50:34.716Z,15.59
2018-11-07T22:53:02.623Z,15.65
2018-11-07T22:55:30.576Z,15.68
2018-11-07T22:57:58.497Z,15.71
2018-11-07T23:00:31.917Z,15.67
2018-11-07T23:02:59.868Z,15.59
2018-11-07T23:05:27.817Z,15.61
2018-11-07T23:07:55.728Z,15.60
2018-11-07T23:10:23.661Z,15.62
2018-11-07T23:12:51.608Z,15.63
2018-11-07T23:15:24.894Z,15.67
2018-11-07T23:17:52.842Z,15.63
2018-11-07T23:20:20.777Z,15.66
2018-11-07T23:22:48.688Z,15.72
2018-11-07T23:25:16.635Z,15.73
2018-11-07T23:27:44.842Z,15.71
2018-11-07T23:30:12.743Z,15.69
2018-11-07T23:32:40.683Z,15.72
2018-11-07T23:35:08.660Z,15.62
2018-11-07T23:37:36.821Z,15.65
2018-11-07T23:40:05.275Z,15.68
2018-11-07T23:42:33.385Z,15.62
2018-11-07T23:45:01.320Z,15.61
2018-11-07T23:47:31.460Z,15.56
2018-11-07T23:49:59.348Z,15.57
2018-11-07T23:52:32.615Z,15.47
2018-11-07T23:55:00.573Z,15.45
2018-11-07T23:57:28.581Z,15.37
2018-11-07T23:59:56.463Z,15.26
